Time;durP1;ratioP1;P1;durP2;ratioP2;P2;SDS_P1;SDS_P2;PMS_P1;PMS_P2;Temp;Humidity;BMP_temperature;BMP_pressure;BME280_temperature;BME280_humidity;BME280_pressure;Samples;Min_cycle;Max_cycle;Signal;HPM_P1;HPM_P2
2020/12/12 00:00:14;;;;;;;35.15;19.70;;;;;;;5.48;100.00;95984.75;4988026;28;20041;-60
2020/12/12 00:02:40;;;;;;;35.47;17.67;;;;;;;5.46;100.00;95962.34;4988126;28;20046;-61
2020/12/12 00:05:05;;;;;;;28.02;16.33;;;;;;;5.77;99.08;96006.09;4988392;28;20074;-60
2020/12/12 00:07:31;;;;;;;30.42;15.93;;;;;;;5.82;98.62;96008.56;4987932;28;20043;-63
2020/12/12 00:09:56;;;;;;;28.77;16.25;;;;;;;5.88;98.86;96015.38;4986268;28;20463;-61
2020/12/12 00:12:22;;;;;;;27.88;16.70;;;;;;;5.97;98.23;96002.16;4987573;28;20489;-61
2020/12/12 00:14:47;;;;;;;38.08;19.55;;;;;;;6.06;97.81;96008.22;4986316;28;20030;-61
2020/12/12 00:17:12;;;;;;;32.72;17.90;;;;;;;5.75;97.39;95958.97;4987818;28;20034;-62
2020/12/12 00:19:38;;;;;;;32.03;17.73;;;;;;;6.14;97.57;96007.16;4985997;28;20041;-61
2020/12/12 00:22:03;;;;;;;31.30;18.52;;;;;;;4.37;96.20;95758.00;4987474;28;20048;-60
2020/12/12 00:24:29;;;;;;;30.35;16.92;;;;;;;5.92;95.32;95969.50;4987349;28;20041;-62
2020/12/12 00:26:56;;;;;;;31.92;18.33;;;;;;;6.29;95.59;95995.25;4987024;28;20054;-61
2020/12/12 00:29:21;;;;;;;31.58;17.63;;;;;;;6.33;96.04;95996.09;4986094;28;20026;-61
2020/12/12 00:31:54;;;;;;;31.83;17.05;;;;;;;5.63;96.18;95913.22;4987329;28;20404;-61
2020/12/12 00:34:19;;;;;;;25.98;16.08;;;;;;;6.35;96.60;95991.03;4967503;28;20941;-61
2020/12/12 00:36:45;;;;;;;30.52;17.10;;;;;;;6.29;96.48;95989.75;4967808;28;20043;-62
2020/12/12 00:39:11;;;;;;;28.90;17.63;;;;;;;6.30;97.55;95985.84;4967835;28;20085;-62
2020/12/12 00:41:39;;;;;;;37.80;18.63;;;;;;;5.98;97.45;95940.53;4967660;28;20043;-62
2020/12/12 00:44:06;;;;;;;38.40;20.83;;;;;;;6.20;97.73;95980.97;4967786;28;20448;-62
2020/12/12 00:46:31;;;;;;;39.75;16.77;;;;;;;5.68;98.13;95926.66;4982304;28;20137;-62
2020/12/12 00:48:57;;;;;;;53.65;18.80;;;;;;;6.12;98.55;95984.75;4967695;28;20518;-61
2020/12/12 00:51:23;;;;;;;27.38;14.98;;;;;;;5.97;98.26;95966.44;4967564;28;20069;-61
2020/12/12 00:53:48;;;;;;;31.73;14.90;;;;;;;5.73;100.00;95955.78;4967666;28;20429;-62
2020/12/12 00:56:14;;;;;;;31.45;16.23;;;;;;;5.83;100.00;95958.72;4966067;28;20039;-62
2020/12/12 00:58:40;;;;;;;36.15;18.33;;;;;;;5.81;100.00;95958.28;4966254;28;20037;-63
2020/12/12 01:01:06;;;;;;;29.48;16.60;;;;;;;5.55;100.00;95917.00;4967456;28;20417;-64
2020/12/12 01:03:31;;;;;;;34.97;18.40;;;;;;;5.84;100.00;95957.59;4967468;28;20552;-63
2020/12/12 01:05:56;;;;;;;37.25;18.80;;;;;;;5.71;100.00;95934.16;4967396;28;20034;-62
2020/12/12 01:08:22;;;;;;;33.92;18.23;;;;;;;5.67;100.00;95936.06;4965606;28;20038;-61
2020/12/12 01:10:47;;;;;;;36.85;18.13;;;;;;;5.86;100.00;95943.47;4967086;28;20035;-63
2020/12/12 01:13:13;;;;;;;39.70;18.33;;;;;;;5.87;100.00;95934.06;4967278;28;20030;-62
2020/12/12 01:15:38;;;;;;;35.75;16.40;;;;;;;4.69;100.00;95731.97;4967034;28;20034;-61
2020/12/12 01:18:03;;;;;;;40.92;17.98;;;;;;;5.53;100.00;95847.13;4967133;28;20027;-62
2020/12/12 01:20:29;;;;;;;40.05;18.83;;;;;;;5.76;100.00;95878.13;4965438;28;20520;-62
2020/12/12 01:22:55;;;;;;;37.97;18.90;;;;;;;6.02;100.00;95900.19;4967361;28;20092;-62
2020/12/12 01:25:20;;;;;;;36.08;19.27;;;;;;;5.76;100.00;95851.44;4966842;28;20109;-62
2020/12/12 01:27:45;;;;;;;30.08;16.75;;;;;;;6.12;100.00;95913.28;4966396;28;20063;-61
2020/12/12 01:30:11;;;;;;;30.17;16.40;;;;;;;6.03;100.00;95882.50;4966908;28;20104;-61
2020/12/12 01:32:37;;;;;;;28.58;15.38;;;;;;;5.31;100.00;95763.59;4970701;28;20073;-61
2020/12/12 01:35:04;;;;;;;30.73;14.60;;;;;;;5.33;100.00;95776.97;4986171;28;20026;-61
2020/12/12 01:37:29;;;;;;;33.10;15.02;;;;;;;6.24;100.00;95893.84;4986396;28;20035;-61
2020/12/12 01:39:54;;;;;;;30.75;14.55;;;;;;;6.26;100.00;95874.22;4986745;28;20030;-62
2020/12/12 01:42:20;;;;;;;32.85;15.60;;;;;;;6.25;100.00;95867.91;4984640;28;20045;-62
2020/12/12 01:44:45;;;;;;;38.42;17.33;;;;;;;6.31;100.00;95866.44;4985846;28;20038;-62
2020/12/12 01:47:11;;;;;;;32.15;16.38;;;;;;;6.32;100.00;95868.03;4985709;28;20038;-62
2020/12/12 01:49:36;;;;;;;30.80;15.35;;;;;;;6.36;100.00;95863.38;4984466;28;20034;-62
2020/12/12 01:52:05;;;;;;;26.48;13.80;;;;;;;6.47;100.00;95858.81;4986082;28;20440;-62
2020/12/12 01:54:31;;;;;;;36.13;19.13;;;;;;;6.53;100.00;95851.81;4986452;28;20037;-62
2020/12/12 01:56:59;;;;;;;46.65;25.27;;;;;;;6.42;100.00;95856.38;4985124;28;20038;-63
2020/12/12 01:59:28;;;;;;;43.65;24.35;;;;;;;6.40;100.00;95853.22;4986354;28;20382;-62
2020/12/12 02:01:56;;;;;;;41.75;24.75;;;;;;;6.41;100.00;95843.78;4985795;28;20065;-62
2020/12/12 02:04:24;;;;;;;49.08;28.23;;;;;;;5.95;100.00;95776.38;4985816;28;20038;-63
2020/12/12 02:06:51;;;;;;;50.80;28.02;;;;;;;6.34;100.00;95842.91;4983961;28;20038;-62
2020/12/12 02:09:16;;;;;;;45.13;25.67;;;;;;;6.39;100.00;95834.31;4985863;28;20091;-63
2020/12/12 02:11:42;;;;;;;52.13;28.65;;;;;;;5.99;100.00;95766.25;4985917;28;20568;-63
2020/12/12 02:14:09;;;;;;;49.97;27.27;;;;;;;5.98;100.00;95768.19;4986443;28;20472;-62
2020/12/12 02:16:57;;;;;;;46.60;26.90;;;;;;;6.41;100.00;95824.53;4985962;28;20078;-63
2020/12/12 02:19:22;;;;;;;55.10;29.33;;;;;;;6.43;100.00;95808.47;4984233;28;20069;-63
2020/12/12 02:21:52;;;;;;;53.08;28.95;;;;;;;6.50;100.00;95814.03;4985328;28;20070;-63
2020/12/12 02:24:18;;;;;;;51.35;29.08;;;;;;;6.59;100.00;95809.03;4984185;28;20026;-63
2020/12/12 02:26:44;;;;;;;40.58;24.90;;;;;;;6.61;100.00;95795.72;4983585;28;20585;-63
2020/12/12 02:29:10;;;;;;;45.10;24.33;;;;;;;6.67;100.00;95796.19;4985561;28;20034;-63
2020/12/12 02:31:37;;;;;;;34.58;18.48;;;;;;;6.65;100.00;95796.56;4985576;28;20493;-63
2020/12/12 02:34:03;;;;;;;26.55;14.18;;;;;;;6.75;100.00;95793.13;4984980;28;20045;-63
2020/12/12 02:36:33;;;;;;;21.88;12.52;;;;;;;6.74;100.00;95786.03;4983718;28;20057;-63
2020/12/12 02:38:58;;;;;;;23.58;13.18;;;;;;;6.06;100.00;95679.19;4985314;28;20080;-62
2020/12/12 02:41:24;;;;;;;23.92;13.32;;;;;;;6.75;100.00;95773.84;4985594;28;20451;-62
2020/12/12 02:43:49;;;;;;;30.35;14.48;;;;;;;6.71;100.00;95775.78;4985291;28;20495;-62
2020/12/12 02:46:15;;;;;;;27.27;15.18;;;;;;;6.11;100.00;95702.78;4985302;28;20030;-62
2020/12/12 02:48:40;;;;;;;26.67;14.25;;;;;;;6.67;100.00;95763.94;4985056;28;20035;-62
2020/12/12 02:51:05;;;;;;;30.83;14.45;;;;;;;6.71;100.00;95762.03;4984792;28;20041;-62
2020/12/12 02:53:31;;;;;;;28.23;15.02;;;;;;;6.79;100.00;95757.38;4985152;28;20033;-62
2020/12/12 02:55:56;;;;;;;26.92;14.88;;;;;;;6.73;100.00;95756.97;4983355;28;20030;-61
2020/12/12 02:58:22;;;;;;;28.50;14.52;;;;;;;6.38;100.00;95718.03;4983652;28;20041;-62
2020/12/12 03:00:47;;;;;;;27.42;14.32;;;;;;;6.76;100.00;95745.19;4985274;28;20031;-62
2020/12/12 03:03:12;;;;;;;28.40;15.45;;;;;;;6.73;100.00;95748.69;4985081;28;20113;-62
2020/12/12 03:05:38;;;;;;;24.95;14.07;;;;;;;6.37;100.00;95705.44;4985063;28;20109;-62
2020/12/12 03:08:03;;;;;;;28.83;15.10;;;;;;;6.71;100.00;95737.28;4985119;28;20560;-62
2020/12/12 03:10:28;;;;;;;23.60;13.73;;;;;;;6.77;100.00;95730.25;4988076;28;20041;-63
2020/12/12 03:12:54;;;;;;;28.80;14.85;;;;;;;6.78;100.00;95728.31;4989290;28;20038;-62
2020/12/12 03:15:19;;;;;;;23.73;13.98;;;;;;;6.82;100.00;95724.41;4988849;28;20058;-62
2020/12/12 03:17:45;;;;;;;30.92;15.38;;;;;;;6.83;100.00;95716.97;4989033;28;20034;-62
2020/12/12 03:20:10;;;;;;;23.20;14.02;;;;;;;6.90;100.00;95712.31;4988975;28;20034;-63
2020/12/12 03:22:36;;;;;;;25.30;14.20;;;;;;;6.97;100.00;95723.38;4989116;28;20074;-62
2020/12/12 03:25:03;;;;;;;25.70;13.55;;;;;;;6.68;100.00;95666.50;4988683;28;20037;-61
2020/12/12 03:27:29;;;;;;;25.02;14.10;;;;;;;6.96;100.00;95699.78;4988163;28;20590;-62
2020/12/12 03:29:54;;;;;;;24.63;12.85;;;;;;;7.04;100.00;95706.94;4988599;28;20030;-62
2020/12/12 03:32:19;;;;;;;23.70;13.38;;;;;;;7.05;100.00;95708.50;4988689;28;20038;-62
2020/12/12 03:34:45;;;;;;;21.02;11.52;;;;;;;7.04;100.00;95695.91;4988192;28;20038;-64
2020/12/12 03:37:12;;;;;;;23.67;14.05;;;;;;;6.60;100.00;95642.03;4988453;28;20038;-63
2020/12/12 03:39:38;;;;;;;23.00;12.57;;;;;;;7.06;100.00;95703.78;4988279;28;20034;-62
2020/12/12 03:42:03;;;;;;;23.27;13.40;;;;;;;7.15;100.00;95685.78;4988079;28;20151;-63
2020/12/12 03:44:29;;;;;;;25.27;12.32;;;;;;;6.82;100.00;95650.13;4988430;28;20157;-61
2020/12/12 03:46:54;;;;;;;22.50;12.25;;;;;;;6.53;100.00;95596.00;4988241;28;20038;-62
2020/12/12 03:49:20;;;;;;;22.58;13.00;;;;;;;7.20;100.00;95692.91;4988207;28;20472;-61
2020/12/12 03:51:45;;;;;;;23.40;14.15;;;;;;;7.12;100.00;95694.81;4988099;28;20484;-62
2020/12/12 03:54:10;;;;;;;23.38;13.15;;;;;;;7.19;100.00;95692.09;4986559;28;20030;-62
2020/12/12 03:56:36;;;;;;;22.92;12.77;;;;;;;7.21;100.00;95681.50;4987886;28;20035;-62
2020/12/12 03:59:02;;;;;;;24.52;13.77;;;;;;;7.22;100.00;95685.81;4988160;28;20038;-62
2020/12/12 04:01:27;;;;;;;17.85;10.82;;;;;;;7.27;100.00;95671.69;4987906;28;20050;-62
2020/12/12 04:03:53;;;;;;;18.33;9.93;;;;;;;7.35;100.00;95673.34;4986417;28;20023;-62
2020/12/12 04:06:18;;;;;;;18.00;9.43;;;;;;;7.38;100.00;95674.56;4987621;28;20069;-62
2020/12/12 04:08:44;;;;;;;20.95;10.57;;;;;;;7.37;100.00;95668.25;4987582;28;20578;-62
2020/12/12 04:11:09;;;;;;;17.88;10.02;;;;;;;7.40;100.00;95670.22;4987870;28;20500;-62
2020/12/12 04:13:35;;;;;;;17.67;9.88;;;;;;;7.32;100.00;95665.03;4987603;28;20552;-62
2020/12/12 04:16:00;;;;;;;12.32;8.32;;;;;;;7.38;100.00;95667.06;4987640;28;20551;-63
2020/12/12 04:18:25;;;;;;;17.02;9.50;;;;;;;7.11;100.00;95618.88;4985940;28;20034;-63
2020/12/12 04:20:51;;;;;;;14.02;8.90;;;;;;;7.40;100.00;95659.22;4987342;28;20026;-62
2020/12/12 04:23:16;;;;;;;17.10;9.43;;;;;;;7.48;100.00;95655.34;4987686;28;20034;-62
2020/12/12 04:25:42;;;;;;;29.58;19.17;;;;;;;7.37;100.00;95654.47;4987139;28;20595;-63
2020/12/12 04:28:07;;;;;;;27.60;17.90;;;;;;;7.39;100.00;95652.13;4985687;28;20070;-62
2020/12/12 04:30:33;;;;;;;23.52;14.13;;;;;;;7.38;100.00;95660.78;4987678;28;20049;-62
2020/12/12 04:32:58;;;;;;;22.45;14.38;;;;;;;7.46;100.00;95649.41;4987118;28;20109;-63
2020/12/12 04:35:24;;;;;;;24.27;13.70;;;;;;;7.34;100.00;95622.19;4985601;28;20026;-62
2020/12/12 04:37:50;;;;;;;27.58;16.75;;;;;;;7.66;100.00;95639.69;4987745;28;20099;-61
2020/12/12 04:40:16;;;;;;;32.40;17.33;;;;;;;7.66;100.00;95636.94;4987574;28;20057;-62
2020/12/12 04:42:42;;;;;;;22.23;14.63;;;;;;;7.60;100.00;95630.19;4987690;28;20042;-62
2020/12/12 04:45:10;;;;;;;26.13;16.50;;;;;;;7.62;100.00;95627.06;4987487;28;20124;-62
2020/12/12 04:47:36;;;;;;;31.67;16.98;;;;;;;7.06;100.00;95566.16;4986829;28;20050;-63
2020/12/12 04:50:03;;;;;;;31.27;16.70;;;;;;;7.59;100.00;95628.63;4987217;28;20034;-63
2020/12/12 04:52:30;;;;;;;27.63;15.63;;;;;;;7.07;100.00;95557.50;4987391;28;20493;-63
2020/12/12 04:54:59;;;;;;;27.60;16.67;;;;;;;7.61;100.00;95626.28;4987132;28;20030;-63
2020/12/12 04:57:24;;;;;;;22.85;15.20;;;;;;;7.47;100.00;95600.63;4987015;28;20034;-63
2020/12/12 04:59:55;;;;;;;27.58;16.15;;;;;;;7.61;100.00;95625.50;4986946;28;20078;-63
2020/12/12 05:02:22;;;;;;;27.95;16.63;;;;;;;7.63;100.00;95623.16;4986976;28;20042;-63
2020/12/12 05:04:47;;;;;;;30.73;17.38;;;;;;;7.48;100.00;95613.22;4985009;28;20027;-64
2020/12/12 05:07:12;;;;;;;31.05;17.17;;;;;;;7.49;100.00;95623.84;4986652;28;20105;-63
2020/12/12 05:09:38;;;;;;;31.10;17.17;;;;;;;7.49;100.00;95618.34;4986872;28;20027;-62
2020/12/12 05:12:03;;;;;;;28.42;16.70;;;;;;;7.45;100.00;95619.50;4986621;28;20089;-63
2020/12/12 05:14:30;;;;;;;30.33;16.58;;;;;;;7.19;100.00;95576.44;4986873;28;20477;-63
2020/12/12 05:16:57;;;;;;;27.80;15.23;;;;;;;7.59;100.00;95612.09;4986389;28;20048;-64
2020/12/12 05:19:23;;;;;;;36.38;17.88;;;;;;;7.42;100.00;95612.81;4984898;28;20038;-63
2020/12/12 05:21:49;;;;;;;33.30;18.50;;;;;;;7.40;100.00;95604.13;4985973;28;20046;-63
2020/12/12 05:24:15;;;;;;;36.10;19.67;;;;;;;7.22;100.00;95570.16;4986345;28;20604;-64
2020/12/12 05:26:45;;;;;;;38.65;20.15;;;;;;;7.42;100.00;95618.31;4985995;28;20109;-64
2020/12/12 05:29:14;;;;;;;33.83;18.23;;;;;;;7.51;100.00;95593.94;4986276;28;20030;-64
2020/12/12 05:31:41;;;;;;;37.25;18.48;;;;;;;7.44;100.00;95591.19;4985486;28;20050;-64
2020/12/12 05:34:16;;;;;;;35.47;19.80;;;;;;;7.42;100.00;95600.97;4985697;28;20507;-64
2020/12/12 05:36:44;;;;;;;46.83;25.58;;;;;;;7.47;100.00;95597.88;4986318;28;20686;-65
2020/12/12 05:39:12;;;;;;;54.03;30.35;;;;;;;6.35;100.00;95416.34;4986398;28;20789;-63
2020/12/12 05:41:39;;;;;;;68.25;37.20;;;;;;;7.53;100.00;95591.59;4984334;28;20045;-63
2020/12/12 05:44:04;;;;;;;110.60;55.47;;;;;;;6.83;100.00;95480.31;4984336;28;20030;-63
2020/12/12 05:46:31;;;;;;;103.60;54.75;;;;;;;6.71;100.00;95450.34;4986192;28;20038;-64
2020/12/12 05:48:57;;;;;;;104.63;53.63;;;;;;;7.50;100.00;95580.56;4986054;28;20524;-63
2020/12/12 05:51:22;;;;;;;106.20;55.47;;;;;;;6.75;100.00;95462.94;4984238;28;20081;-64
2020/12/12 05:53:48;;;;;;;97.30;50.28;;;;;;;6.99;100.00;95498.06;4985899;28;20030;-62
2020/12/12 05:56:14;;;;;;;89.65;45.03;;;;;;;7.58;100.00;95588.50;4984280;28;20038;-63
2020/12/12 05:58:40;;;;;;;76.75;41.95;;;;;;;7.62;100.00;95578.25;4986076;28;20113;-63
2020/12/12 06:01:16;;;;;;;92.07;48.83;;;;;;;7.43;100.00;95542.75;5000417;28;20038;-63
2020/12/12 06:03:50;;;;;;;97.78;55.55;;;;;;;7.65;100.00;95566.47;4986230;28;20057;-63
2020/12/12 06:06:19;;;;;;;;;;;;;;;7.71;100.00;95559.41;4984115;28;20141;-63
2020/12/12 06:08:55;;;;;;;157.80;83.63;;;;;;;7.62;100.00;95564.50;4985505;28;19918;-63
2020/12/12 06:11:21;;;;;;;169.43;88.13;;;;;;;7.60;100.00;95566.81;4985589;28;20050;-64
2020/12/12 06:13:49;;;;;;;175.63;91.18;;;;;;;7.62;100.00;95567.25;4985591;28;20092;-65
2020/12/12 06:16:17;;;;;;;167.85;87.05;;;;;;;7.29;100.00;95515.16;4985498;28;20038;-64
2020/12/12 06:19:01;;;;;;;194.23;99.60;;;;;;;7.66;100.00;95564.50;4985425;28;20042;-64
2020/12/12 06:21:28;;;;;;;;;;;;;;;7.66;100.00;95562.56;4984152;28;20189;-65
2020/12/12 06:23:54;;;;;;;223.00;110.70;;;;;;;7.66;100.00;95554.28;4985304;28;19925;-65
2020/12/12 06:26:40;;;;;;;255.57;125.00;;;;;;;7.68;100.00;95560.16;4983522;28;20557;-64
2020/12/12 06:29:06;;;;;;;193.85;99.20;;;;;;;7.61;100.00;95560.16;4985416;28;20208;-64
2020/12/12 06:31:36;;;;;;;183.77;100.18;;;;;;;7.61;100.00;95560.16;4983723;28;20042;-64
2020/12/12 06:34:02;;;;;;;125.60;68.63;;;;;;;7.40;100.00;95515.19;4975678;28;20482;-64
2020/12/12 06:36:31;;;;;;;118.15;68.15;;;;;;;7.68;100.00;95560.16;4966011;28;20047;-64
2020/12/12 06:39:21;;;;;;;102.53;55.85;;;;;;;7.67;100.00;95552.28;4964584;28;20556;-64
2020/12/12 06:41:52;;;;;;;91.63;53.78;;;;;;;7.67;100.00;95553.09;4966031;28;20123;-64
2020/12/12 06:44:38;;;;;;;100.00;54.15;;;;;;;7.74;100.00;95558.63;4967261;28;20030;-64
2020/12/12 06:47:05;;;;;;;95.20;53.42;;;;;;;7.31;100.00;95501.78;4969789;28;20944;-64
2020/12/12 06:49:31;;;;;;;98.88;56.88;;;;;;;7.30;100.00;95505.69;4968295;28;20066;-64
2020/12/12 06:51:57;;;;;;;83.57;49.47;;;;;;;7.72;100.00;95555.47;4969797;28;20058;-63
2020/12/12 06:54:23;;;;;;;89.40;51.20;;;;;;;6.94;100.00;95421.38;4968021;28;20085;-65
2020/12/12 06:56:49;;;;;;;89.95;53.40;;;;;;;7.73;100.00;95548.78;4969657;28;20441;-64
2020/12/12 06:59:27;;;;;;;110.35;62.47;;;;;;;7.44;100.00;95500.28;4969819;28;20082;-64
2020/12/12 07:01:56;;;;;;;125.28;71.45;;;;;;;7.83;100.00;95554.72;4968328;28;20133;-64
2020/12/12 07:04:23;;;;;;;114.28;66.22;;;;;;;7.82;100.00;95547.63;4970027;28;20545;-64
2020/12/12 07:07:07;;;;;;;101.32;58.78;;;;;;;7.87;100.00;95536.22;4969342;28;20070;-63
2020/12/12 07:09:40;;;;;;;120.60;69.88;;;;;;;7.61;100.00;95493.22;4969477;28;20034;-63
2020/12/12 07:12:07;;;;;;;136.10;79.40;;;;;;;7.21;100.00;95436.44;4967548;28;20970;-64
2020/12/12 07:14:33;;;;;;;147.15;87.38;;;;;;;7.53;100.00;95475.09;4983958;28;20285;-64
2020/12/12 07:17:00;;;;;;;161.68;93.53;;;;;;;7.83;100.00;95522.44;4969079;28;20217;-64
2020/12/12 07:19:33;;;;;;;148.68;89.75;;;;;;;7.93;100.00;95531.91;4969349;28;20038;-64
2020/12/12 07:22:00;;;;;;;158.70;94.28;;;;;;;8.02;100.00;95551.63;4969309;28;20046;-64
2020/12/12 07:24:26;;;;;;;161.18;98.50;;;;;;;7.59;100.00;95463.31;4967621;28;20043;-64
2020/12/12 07:26:53;;;;;;;177.50;113.65;;;;;;;7.30;100.00;95406.56;4967072;28;20051;-63
2020/12/12 07:29:19;;;;;;;212.32;131.23;;;;;;;8.01;100.00;95520.53;4967619;28;20042;-64
2020/12/12 07:31:46;;;;;;;243.25;147.60;;;;;;;7.81;100.00;95474.41;4967367;28;20038;-63
2020/12/12 07:34:16;;;;;;;269.33;156.02;;;;;;;8.09;100.00;95526.84;4979551;28;20033;-64
2020/12/12 07:36:41;;;;;;;253.50;141.55;;;;;;;8.05;100.00;95523.25;4988428;28;20046;-64
2020/12/12 07:39:08;;;;;;;179.65;103.50;;;;;;;8.20;100.00;95519.38;5003047;28;20035;-64
2020/12/12 07:41:44;;;;;;;406.08;189.23;;;;;;;7.69;100.00;95459.81;4986752;28;20109;-64
2020/12/12 07:44:10;;;;;;;156.57;86.78;;;;;;;7.52;100.00;95446.75;4988331;28;20036;-64
2020/12/12 07:46:40;;;;;;;115.13;58.95;;;;;;;7.32;100.00;95404.22;4988229;28;20048;-64
2020/12/12 07:49:06;;;;;;;100.63;52.92;;;;;;;8.03;100.00;95522.88;4988033;28;20030;-64
2020/12/12 07:51:32;;;;;;;107.93;56.05;;;;;;;8.05;100.00;95518.53;4986555;28;20507;-64
2020/12/12 07:53:58;;;;;;;90.63;55.08;;;;;;;7.92;100.00;95481.50;4987946;28;20035;-65
2020/12/12 07:56:24;;;;;;;62.67;34.88;;;;;;;8.15;100.00;95522.50;5001867;28;20120;-64
2020/12/12 07:58:59;;;;;;;53.35;29.65;;;;;;;8.02;100.00;95490.97;4987970;28;20030;-64
2020/12/12 08:01:25;;;;;;;57.70;34.00;;;;;;;8.17;100.00;95531.19;5002927;28;20035;-65
2020/12/12 08:03:50;;;;;;;65.75;39.50;;;;;;;8.14;100.00;95509.91;4988030;28;20030;-64
2020/12/12 08:06:16;;;;;;;66.50;41.33;;;;;;;5.55;100.00;95103.38;4988042;28;20052;-65
2020/12/12 08:08:51;;;;;;;55.45;35.05;;;;;;;5.97;100.00;95158.56;4985974;28;20062;-64
2020/12/12 08:11:17;;;;;;;57.10;31.48;;;;;;;8.22;100.00;95500.47;4986274;28;20039;-66
2020/12/12 08:13:43;;;;;;;50.78;30.23;;;;;;;7.86;100.00;95444.47;4986291;28;20036;-65
2020/12/12 08:18:40;;;;;;;77.63;47.50;;;;;;;8.41;100.00;95505.63;4988236;28;20484;-64
2020/12/12 08:21:16;;;;;;;181.45;98.90;;;;;;;8.15;100.00;95472.88;4987694;28;20046;-64
2020/12/12 08:23:43;;;;;;;134.90;75.32;;;;;;;8.08;100.00;95450.81;4986364;28;20156;-64
2020/12/12 08:26:13;;;;;;;124.32;64.20;;;;;;;8.11;100.00;95499.66;4987147;28;20062;-64
2020/12/12 08:28:39;;;;;;;77.60;42.90;;;;;;;8.27;100.00;95498.13;5002043;28;20551;-64
2020/12/12 08:31:16;;;;;;;62.50;34.70;;;;;;;7.70;100.00;95413.75;4987361;28;20034;-64
2020/12/12 08:33:44;;;;;;;45.17;25.05;;;;;;;8.47;100.00;95487.50;4979402;28;20033;-65
2020/12/12 08:36:14;;;;;;;45.40;24.98;;;;;;;7.87;100.00;95401.19;4982580;28;20027;-64
2020/12/12 08:38:42;;;;;;;53.35;27.67;;;;;;;8.51;100.00;95491.81;4966315;28;20035;-64
2020/12/12 08:41:12;;;;;;;59.47;30.00;;;;;;;8.53;100.00;95483.16;4966302;28;20057;-65
2020/12/12 08:43:38;;;;;;;50.53;24.25;;;;;;;8.63;100.00;95474.09;4966410;28;20031;-65
2020/12/12 08:46:04;;;;;;;37.55;21.48;;;;;;;8.08;100.00;95395.69;4967701;28;20038;-64
2020/12/12 08:48:36;;;;;;;39.17;22.77;;;;;;;8.65;100.00;95464.22;4981989;28;20097;-63
2020/12/12 08:51:07;;;;;;;37.42;22.45;;;;;;;8.46;100.00;95408.66;4967502;28;20042;-63
2020/12/12 08:53:42;;;;;;;33.85;20.65;;;;;;;8.85;100.00;95448.03;4965858;28;20035;-64
2020/12/12 08:56:09;;;;;;;31.88;19.33;;;;;;;8.75;100.00;95448.81;4967308;28;20039;-64
2020/12/12 08:58:36;;;;;;;25.90;17.30;;;;;;;8.56;100.00;95421.66;4970969;28;20095;-63
2020/12/12 09:01:15;;;;;;;29.92;17.67;;;;;;;8.67;100.00;95433.47;4986555;28;20108;-63
2020/12/12 09:04:14;;;;;;;11.40;6.18;;;;;;;8.70;100.00;95432.66;4985108;28;20120;-64
2020/12/12 09:06:52;;;;;;;6.03;3.78;;;;;;;8.39;100.00;95381.88;4983991;28;20081;-64
2020/12/12 09:09:18;;;;;;;5.82;2.60;;;;;;;8.81;100.00;95422.38;4986852;28;20058;-64
2020/12/12 09:11:55;;;;;;;3.03;2.53;;;;;;;8.71;100.00;95396.38;4984888;28;20050;-64
2020/12/12 09:14:21;;;;;;;4.22;2.40;;;;;;;8.98;100.00;95404.97;4984945;28;20049;-63
2020/12/12 09:16:52;;;;;;;21.63;10.25;;;;;;;8.99;100.00;95406.56;4984961;28;20034;-63
2020/12/12 09:19:18;;;;;;;24.75;11.60;;;;;;;9.14;100.00;95397.81;4984717;28;20030;-65
2020/12/12 09:21:43;;;;;;;18.67;9.35;;;;;;;6.28;100.00;94943.44;4984229;28;20130;-64
2020/12/12 09:24:09;;;;;;;15.48;8.30;;;;;;;8.95;100.00;95394.72;4984818;28;20129;-63
2020/12/12 09:26:35;;;;;;;10.02;5.68;;;;;;;5.36;100.00;94788.06;4984494;28;20433;-63
2020/12/12 09:29:00;;;;;;;16.48;9.20;;;;;;;1.96;100.00;94437.25;4968208;28;20038;-63
2020/12/12 09:31:26;;;;;;;29.25;12.23;;;;;;;6.77;100.00;94984.63;4983873;28;20038;-63
2020/12/12 09:33:52;;;;;;;28.58;13.48;;;;;;;7.83;100.00;95144.84;4986162;28;20033;-62
2020/12/12 09:36:19;;;;;;;12.63;7.80;;;;;;;7.86;100.00;95148.78;4986501;28;20045;-62
2020/12/12 09:38:45;;;;;;;13.55;8.15;;;;;;;5.40;100.00;94721.03;4985909;28;20485;-62
2020/12/12 09:41:11;;;;;;;6.18;4.30;;;;;;;5.80;100.00;94777.47;4984824;28;20045;-62
2020/12/12 09:43:36;;;;;;;9.30;3.90;;;;;;;8.32;100.00;95165.94;4984543;28;20492;-63
2020/12/12 09:46:02;;;;;;;12.57;9.95;;;;;;;7.85;100.00;95095.63;4986031;28;20035;-63
2020/12/12 09:48:28;;;;;;;10.02;6.70;;;;;;;4.91;100.00;94657.16;4984321;28;20057;-62
2020/12/12 09:50:53;;;;;;;15.27;9.65;;;;;;;4.54;100.00;94589.00;4985886;28;20034;-62
2020/12/12 09:53:19;;;;;;;10.63;4.53;;;;;;;7.43;100.00;95096.56;4984421;28;20575;-63
2020/12/12 09:55:45;;;;;;;6.78;3.72;;;;;;;8.51;100.00;95226.16;4985393;28;20027;-63
2020/12/12 09:58:11;;;;;;;9.68;6.45;;;;;;;9.41;100.00;95328.22;4984126;28;20026;-63
2020/12/12 10:00:38;;;;;;;5.40;3.67;;;;;;;6.43;100.00;94868.03;4985900;28;20118;-63
2020/12/12 10:03:05;;;;;;;14.77;9.57;;;;;;;8.33;100.00;95195.13;4984099;28;20104;-63
2020/12/12 10:05:34;;;;;;;10.30;7.25;;;;;;;9.26;100.00;95348.84;4984089;28;20038;-64
2020/12/12 10:08:00;;;;;;;5.78;5.03;;;;;;;9.29;100.00;95277.00;4985759;28;20045;-63
2020/12/12 10:10:27;;;;;;;12.65;8.63;;;;;;;9.08;100.00;95257.78;4984021;28;20031;-67
2020/12/12 10:12:52;;;;;;;16.58;10.65;;;;;;;9.59;100.00;95313.09;4985756;28;20417;-63
2020/12/12 10:15:19;;;;;;;8.30;5.85;;;;;;;8.57;100.00;95147.28;4985716;28;20029;-64
2020/12/12 10:17:46;;;;;;;8.20;6.18;;;;;;;9.70;100.00;95319.34;4984693;28;20042;-63
2020/12/12 10:20:11;;;;;;;17.33;11.07;;;;;;;9.46;100.00;95291.88;4985353;28;20062;-64
2020/12/12 10:22:37;;;;;;;13.63;8.60;;;;;;;9.63;100.00;95330.44;4985577;28;20141;-65
2020/12/12 10:25:04;;;;;;;9.13;4.90;;;;;;;9.66;100.00;95318.56;4983573;28;20038;-64
2020/12/12 10:27:29;;;;;;;9.60;6.10;;;;;;;9.60;100.00;95316.63;4983771;28;20054;-64
2020/12/12 10:29:55;;;;;;;9.98;6.13;;;;;;;9.55;100.00;95309.56;4985198;28;20612;-65
2020/12/12 10:32:21;;;;;;;10.85;6.95;;;;;;;9.56;100.00;95313.13;4983555;28;20129;-64
2020/12/12 10:34:46;;;;;;;6.65;4.47;;;;;;;8.62;100.00;95189.06;4993448;28;20026;-64
2020/12/12 10:37:12;;;;;;;14.40;8.80;;;;;;;8.82;100.00;95214.19;4983631;28;20553;-64
2020/12/12 10:39:48;;;;;;;7.47;4.68;;;;;;;9.48;100.00;95306.88;4984104;28;20042;-63
2020/12/12 10:42:14;;;;;;;6.60;3.22;;;;;;;9.25;100.00;95259.66;4983840;28;20035;-64
2020/12/12 10:44:39;;;;;;;3.58;2.75;;;;;;;9.27;100.00;95273.84;4983780;28;20044;-64
2020/12/12 10:47:05;;;;;;;6.30;4.40;;;;;;;9.18;100.00;95256.94;4983718;28;20547;-65
2020/12/12 10:49:30;;;;;;;7.15;3.88;;;;;;;8.53;100.00;95169.41;4985378;28;20613;-66
2020/12/12 10:51:55;;;;;;;6.55;4.22;;;;;;;9.23;100.00;95278.63;4985036;28;20026;-66
2020/12/12 10:54:25;;;;;;;16.52;9.75;;;;;;;9.35;100.00;95288.41;4983667;28;20046;-65
2020/12/12 10:56:51;;;;;;;7.78;4.70;;;;;;;9.19;100.00;95269.56;4985549;28;20062;-63
2020/12/12 10:59:16;;;;;;;14.20;9.25;;;;;;;9.40;100.00;95286.00;4985228;28;20061;-65
2020/12/12 11:01:42;;;;;;;16.10;10.55;;;;;;;9.37;100.00;95267.47;4983266;28;20062;-64
2020/12/12 11:04:07;;;;;;;21.90;12.85;;;;;;;9.17;100.00;95236.03;4985031;28;20462;-64
2020/12/12 11:06:33;;;;;;;9.73;6.85;;;;;;;8.84;100.00;95206.25;4985153;28;20038;-64
2020/12/12 11:09:00;;;;;;;9.23;6.32;;;;;;;9.39;100.00;95269.84;4984672;28;20054;-63
2020/12/12 11:11:26;;;;;;;23.75;15.10;;;;;;;9.14;100.00;95236.84;4983208;28;20030;-65
2020/12/12 11:13:51;;;;;;;20.75;10.57;;;;;;;8.87;100.00;95172.31;4984706;28;20481;-63
2020/12/12 11:16:23;;;;;;;13.90;7.28;;;;;;;8.11;100.00;95064.00;4984441;28;20225;-64
2020/12/12 11:18:51;;;;;;;8.15;5.03;;;;;;;9.26;100.00;95228.09;4983075;28;20583;-63
2020/12/12 11:21:24;;;;;;;12.50;9.25;;;;;;;6.73;100.00;94904.09;4983059;28;20034;-63